대문
인공위성 심상 15 일 일기 예보기후바람 예보 사이클론 번개 공항FAQ 회보 프로젝트 소개
날씨 : 유럽 아프리카 북아메리카 남아메리카 아시아 오스트레일리아-오세아니아 다른 사람
언어 접촉

청도, 중국

위도: 36-04N, 경도: 120-20E, 해발고도: 77 m


METAR: ZSQD 280600Z 15005MPS 6000 NSC 30/16 Q1007 NOSIG
short-TAF: 구식인 (63788 시간)
long-TAF: ZSQD 280315Z 2806/2906 17004MPS 3500 HZ NSC TX33/2905Z TN21/20Z

시간: 14:13 (06:13 UTC)

날씨관측

보고는 전에 13 분 제출되었다: 06:00 UTC  
바람 10 kt   남남동
온도 30°C
습도 43%
기압 1007 hPa
시정 6000 m

단위계

날씨예보

보고는 전에 2 시간 그리고 8 분 제출되었다: 04:05 UTC  
예보기간[UTC] : 28일 06시 ~ 29일 06시
바람 8 kt  
시정 3500 m
연무
이 위치에 정보는 a를 조건으로 하여 이다 포기
날씨 : 유럽 아프리카 북아메리카 남아메리카 아시아 오스트레일리아-오세아니아 다른 사람
인공위성 심상 15 일 일기 예보기후바람 예보 사이클론 번개 공항FAQ 언어 접촉 회보 프로젝트 소개